首页
METAR-TAF:

METAR-TAF

机场 :

Pensacola Regional Airport

彭萨科拉, 佛罗里达州, 美国

纬度: 30-28-41N, 经度: 087-11-13W, 海拔: 36米

当前天气观测

该预报发布于46分钟前的22:53 UTC
风速4节,风向
温度 20°C
湿度 94%
气压 1015 hPa
能見度: 16.1公里
散云层高于5500英尺

METAR: KPNS 092253Z 17004KT 10SM SCT055 20/19 A2998 RMK AO2 SLP154 T02000194

时间: 17:39 (23:39 UTC)

预报

该预报发布于6小时和17分钟前的17:22 UTC
预报有效从09日的 18点(UTC)到 10日的 18点(UTC)
风速9节,风向西南
能見度: 10公里
少量云层高于15000英尺
从 10日的 0300点(UTC)
风速6节,风向
能見度: 4.8公里
多云层高于7000英尺
轻雾
从 10日的 0600点(UTC)
风速6节,风向
能見度: 0.4公里
多云层高于5000英尺
从 10日的 0900点(UTC)
风速6节,风向
能見度: 0.4公里
阴天层高于1500英尺
从 10日的 1200点(UTC)
风速7节,风向
能見度: 4.8公里
阴天层高于1000英尺
轻雾, 附近有阵雨
从 10日的 1400点(UTC)
风速7节,风向
能見度: 10公里
阴天层高于1500英尺
附近有阵雨

TAF: KPNS 091722Z 0918/1018 22009KT P6SM FEW150 FM100300 19006KT 3SM BR BKN070 FM100600 18006KT 1/4SM FG BKN050 FM100900 18006KT 1/4SM FG OVC015 FM101200 18007KT 3SM BR VCSH OVC010 FM101400 18007KT P6SM VCSH OVC015

超过4000个机场的气象观测和天气预报(METAR&TAF报告)。

可查询的气象台以黄色和红色小点在地图上表示。

将鼠标移到小点上方,可查看气象台名称。

然后点击查看天气观测和预报。

如需切换地图:点击带黑十字的绿色按钮放大地图;点击带横线的绿色按钮缩小地图;或者点击绿色箭头查看邻近地区的地图。


METAR-TAF: